Crawfordsville, OR (97336)

5:26 PM PDT on May 06, 2015 (GMT -0700)
18th and Grape | | Change Station
CLOSE
Current Station
Personal Weather Station
Location: Sweet Home, OR
Elevation: 575 ft
Nearby Weather Stations

Elev 575 ft 44.39 °N, 122.72 °W | Updated 6 seconds ago

Mostly Cloudy
Mostly Cloudy
60.0 °F
Feels Like 60.0 °F
N
8.2
Wind Variable Wind from NNW
Gusts 11.6 mph

Today
High -- | Low -- °F
--% Chance of Precip.
Yesterday
High -- | Low -- °F
Precip. -- in
5:55 AM 8:21 PM
Waning Gibbous, 91% visible
Pressure 30.08 in
Visibility 10.0 miles
Clouds Overcast 5000 ft
Dew Point 37 °F
Humidity 43%
Rainfall 0.00 in
Snow Depth Not available.
UV 1 out of 12
Pollen 6.30 out of 12
Air Quality Not available.
Flu Activity Regional
METAR KCVO 070015Z 29011KT 10SM OVC050 13/07 A3008 RMK AO1

More Conditions Fewer Conditions

Pressure 30.08 in
Visibility 10.0 miles
Clouds Overcast 5000 ft
Dew Point 37 °F
Humidity 43%
Rainfall 0.00 in
Snow Depth Not available.
UV 1 out of 12
Pollen 6.30 out of 12
Air Quality Not available.
Flu Activity Regional
METAR KCVO 070015Z 29011KT 10SM OVC050 13/07 A3008 RMK AO1

More Conditions Fewer Conditions

10-Day Weather Forecast

Almanac

Astronomy

May. 06, 2015 Rise Set
Actual Time
Civil Twilight
Nautical Twilight
Astronomical Twilight
Moon
Length of Visible Light
Length of Day
Tomorrow will be .
, % of the Moon is Illuminated

Today's Extremes

State Highs State Lows

Community

WunderPhotos

Upload Photos

1,819,052 photos uploaded!

WunderBlogs® & News

Nearby

Air Quality

  Air Quality AQ Index Pollutant
Not available.

Snow Depth

Station Depth Elevation

Earthquake Activity

City Distance Mag. Time & Date
Minimum magnitude displayed is 2.5.

Coastal Water Temperatures

Place Temperature

Stations

Nearby Weather Stations

Station Location Temp. Windchill Dew Point Humidity Wind Precip. Elev Updated Type